createdAt,value
2022-11-14T00:01:21.240Z,40.37
2022-11-14T00:03:52.267Z,40.22
2022-11-14T00:06:20.358Z,40.57
2022-11-14T00:08:48.462Z,40.47
2022-11-14T00:11:16.909Z,40.62
2022-11-14T00:13:45.298Z,40.74
2022-11-14T00:16:13.576Z,40.67
2022-11-14T00:18:41.805Z,40.64
2022-11-14T00:21:11.646Z,40.66
2022-11-14T00:23:39.688Z,41.42
2022-11-14T00:26:08.081Z,40.96
2022-11-14T00:28:36.525Z,40.77
2022-11-14T00:31:04.649Z,40.69
2022-11-14T00:33:33.130Z,40.66
2022-11-14T00:36:01.242Z,40.80
2022-11-14T00:38:31.322Z,40.76
2022-11-14T00:40:59.552Z,41.36
2022-11-14T00:43:28.502Z,41.57
2022-11-14T00:45:56.503Z,41.79
2022-11-14T00:48:24.722Z,41.62
2022-11-14T00:50:53.071Z,41.86
2022-11-14T00:53:21.070Z,41.67
2022-11-14T00:55:50.950Z,41.10
2022-11-14T00:58:18.941Z,41.50
2022-11-14T01:00:47.360Z,41.26
2022-11-14T01:03:15.531Z,41.14
2022-11-14T01:05:44.806Z,41.00
2022-11-14T01:08:13.381Z,40.96
2022-11-14T01:10:42.236Z,41.10
2022-11-14T01:13:12.122Z,40.95
2022-11-14T01:15:41.293Z,41.13
2022-11-14T01:18:10.698Z,41.47
2022-11-14T01:20:40.654Z,41.06
2022-11-14T01:23:09.226Z,41.23
2022-11-14T01:25:38.314Z,41.14
2022-11-14T01:28:08.138Z,41.13
2022-11-14T01:30:37.840Z,41.17
2022-11-14T01:33:06.900Z,41.57
2022-11-14T01:35:36.183Z,41.53
2022-11-14T01:38:05.020Z,41.48
2022-11-14T01:40:33.719Z,41.25
2022-11-14T01:43:24.950Z,40.37
2022-11-14T01:45:57.365Z,41.23
2022-11-14T01:48:29.634Z,41.20
2022-11-14T01:51:00.065Z,41.08
2022-11-14T01:53:28.421Z,41.40
2022-11-14T01:55:59.752Z,40.87
2022-11-14T01:58:29.149Z,41.45
2022-11-14T02:00:59.220Z,41.20
2022-11-14T02:03:27.549Z,41.31
2022-11-14T02:05:55.860Z,41.23
2022-11-14T02:08:24.946Z,41.01
2022-11-14T02:10:53.009Z,41.10
2022-11-14T02:13:21.373Z,41.52
2022-11-14T02:15:49.638Z,41.35
2022-11-14T02:18:19.390Z,41.34
2022-11-14T02:20:48.794Z,41.53
2022-11-14T02:23:26.983Z,41.86
2022-11-14T02:25:55.599Z,42.56
2022-11-14T02:28:23.728Z,43.59
2022-11-14T02:30:52.209Z,42.93
2022-11-14T02:33:20.316Z,42.58
2022-11-14T02:35:49.867Z,42.28
2022-11-14T02:38:18.188Z,42.54
2022-11-14T02:40:46.268Z,42.94
2022-11-14T02:43:14.543Z,43.60
2022-11-14T02:45:42.772Z,42.86
2022-11-14T02:48:11.106Z,42.63
2022-11-14T02:50:39.195Z,42.71
2022-11-14T02:53:08.980Z,42.75
2022-11-14T02:55:37.278Z,41.97
2022-11-14T02:58:05.533Z,42.34
2022-11-14T03:00:33.715Z,42.86
2022-11-14T03:03:02.296Z,44.36
2022-11-14T03:05:30.345Z,44.17
2022-11-14T03:07:58.459Z,44.18
2022-11-14T03:10:28.184Z,43.15
2022-11-14T03:12:57.158Z,42.41
2022-11-14T03:15:25.838Z,42.31
2022-11-14T03:17:53.912Z,42.37
2022-11-14T03:20:21.968Z,42.64
2022-11-14T03:22:50.393Z,43.56
2022-11-14T03:25:18.614Z,43.01
2022-11-14T03:27:48.464Z,42.41
2022-11-14T03:30:16.727Z,42.38
2022-11-14T03:32:45.273Z,42.36
2022-11-14T03:35:13.639Z,42.34
2022-11-14T03:37:41.759Z,42.01
2022-11-14T03:40:10.935Z,42.14
2022-11-14T03:42:38.993Z,42.66
2022-11-14T03:45:09.389Z,42.23
2022-11-14T03:47:37.530Z,42.37
2022-11-14T03:50:06.994Z,42.54
2022-11-14T03:52:35.116Z,42.44
2022-11-14T03:55:03.540Z,42.72
2022-11-14T03:57:31.620Z,43.91
2022-11-14T04:00:00.124Z,43.24
2022-11-14T04:02:29.614Z,44.13
2022-11-14T04:04:57.926Z,43.87
2022-11-14T04:07:25.955Z,43.22
2022-11-14T04:09:54.108Z,44.10
2022-11-14T04:12:22.514Z,43.14
2022-11-14T04:14:50.620Z,43.69
2022-11-14T04:17:18.874Z,45.05
2022-11-14T04:19:48.348Z,45.43
2022-11-14T04:22:16.876Z,43.83
2022-11-14T04:24:44.932Z,45.61
2022-11-14T04:27:13.289Z,44.11
2022-11-14T04:29:41.445Z,43.25
2022-11-14T04:32:09.720Z,44.17
2022-11-14T04:34:37.768Z,44.58
2022-11-14T04:37:07.584Z,44.22
2022-11-14T04:39:35.727Z,44.58
2022-11-14T04:42:04.168Z,45.34
2022-11-14T04:44:32.431Z,44.94
2022-11-14T04:47:00.807Z,43.91
2022-11-14T04:49:28.811Z,44.99
2022-11-14T04:51:57.250Z,44.52
2022-11-14T04:54:26.649Z,44.37
2022-11-14T04:56:54.948Z,43.28
2022-11-14T04:59:23.040Z,43.31
2022-11-14T05:01:51.405Z,42.80
2022-11-14T05:04:19.791Z,42.29
2022-11-14T05:06:48.201Z,42.27
2022-11-14T05:09:16.322Z,42.91
2022-11-14T05:11:46.054Z,42.56
2022-11-14T05:14:14.227Z,42.57
2022-11-14T05:16:42.527Z,42.96
2022-11-14T05:19:10.659Z,42.57
2022-11-14T05:21:39.011Z,42.74
2022-11-14T05:24:07.556Z,42.81
2022-11-14T05:26:35.936Z,42.53
2022-11-14T05:29:05.494Z,42.31
2022-11-14T05:31:33.493Z,42.32
2022-11-14T05:34:01.998Z,42.62
2022-11-14T05:36:30.079Z,42.33
2022-11-14T05:38:58.711Z,42.64
2022-11-14T05:41:26.760Z,43.27
2022-11-14T05:43:55.317Z,42.82
2022-11-14T05:46:24.726Z,43.28
2022-11-14T05:48:53.207Z,43.40
2022-11-14T05:51:21.321Z,44.03
2022-11-14T05:53:49.858Z,43.18
2022-11-14T05:56:17.916Z,42.18
2022-11-14T05:58:46.472Z,42.56
2022-11-14T06:01:15.967Z,42.62
2022-11-14T06:03:46.905Z,43.23
2022-11-14T06:06:17.761Z,43.01
2022-11-14T06:08:46.202Z,42.94
2022-11-14T06:11:16.380Z,42.09
2022-11-14T06:13:45.128Z,42.88
2022-11-14T06:16:15.177Z,42.84
2022-11-14T06:18:45.480Z,42.20
2022-11-14T06:21:14.918Z,42.19
2022-11-14T06:23:43.541Z,42.41
2022-11-14T06:26:16.722Z,42.11
2022-11-14T06:28:45.279Z,42.99
2022-11-14T06:31:13.425Z,42.92
2022-11-14T06:33:41.859Z,42.78
2022-11-14T06:36:11.840Z,42.21
2022-11-14T06:38:41.283Z,42.64
2022-11-14T06:41:10.870Z,42.78
2022-11-14T06:43:41.160Z,42.72
2022-11-14T06:46:10.689Z,42.74
2022-11-14T06:48:39.486Z,42.53
2022-11-14T06:51:08.204Z,42.37
2022-11-14T06:53:38.051Z,42.19
2022-11-14T06:56:07.743Z,41.76
2022-11-14T06:58:39.014Z,42.11
2022-11-14T07:01:08.669Z,42.69
2022-11-14T07:03:37.015Z,42.77
2022-11-14T07:06:06.185Z,42.28
2022-11-14T07:08:35.124Z,43.20
2022-11-14T07:11:05.955Z,42.37
2022-11-14T07:13:35.523Z,42.13
2022-11-14T07:16:03.947Z,42.11
2022-11-14T07:18:33.164Z,42.03
2022-11-14T07:21:02.831Z,42.46
2022-11-14T07:23:32.009Z,42.72
2022-11-14T07:26:03.066Z,41.86
2022-11-14T07:28:33.229Z,41.54
2022-11-14T07:31:03.987Z,41.78
2022-11-14T07:33:32.821Z,41.58
2022-11-14T07:36:00.899Z,41.27
2022-11-14T07:38:29.549Z,42.00
2022-11-14T07:41:00.103Z,41.83
2022-11-14T07:43:29.350Z,41.47
2022-11-14T07:46:01.311Z,41.13
2022-11-14T07:48:30.553Z,41.44
2022-11-14T07:51:02.355Z,41.15
2022-11-14T07:53:31.336Z,41.83
2022-11-14T07:56:04.544Z,41.70
2022-11-14T07:58:33.217Z,42.88
2022-11-14T08:01:03.685Z,42.68
2022-11-14T08:03:32.455Z,42.28
2022-11-14T08:06:04.048Z,41.77
2022-11-14T08:08:32.859Z,42.38
2022-11-14T08:11:01.630Z,41.63
2022-11-14T08:13:32.607Z,41.96
2022-11-14T08:16:12.296Z,41.69
2022-11-14T08:18:42.491Z,42.01
2022-11-14T08:21:10.541Z,41.38
2022-11-14T08:23:38.895Z,41.07
2022-11-14T08:26:07.149Z,42.01
2022-11-14T08:28:35.573Z,41.46
2022-11-14T08:31:04.334Z,41.53
2022-11-14T08:33:34.244Z,41.41
2022-11-14T08:36:02.842Z,41.36
2022-11-14T08:38:32.838Z,41.33
2022-11-14T08:41:01.539Z,41.19
2022-11-14T08:43:30.010Z,41.33
2022-11-14T08:46:01.570Z,40.85
2022-11-14T08:48:31.576Z,40.79
2022-11-14T08:51:04.250Z,40.19
2022-11-14T08:53:32.731Z,40.33
2022-11-14T08:56:00.927Z,40.34
2022-11-14T08:58:31.496Z,40.04
2022-11-14T09:01:03.324Z,39.80
2022-11-14T09:03:31.871Z,40.25
2022-11-14T09:06:01.998Z,39.85
2022-11-14T09:08:31.369Z,39.39
2022-11-14T09:11:05.147Z,39.30
2022-11-14T09:13:36.797Z,39.22
2022-11-14T09:16:05.182Z,39.48
2022-11-14T09:18:33.738Z,38.96
2022-11-14T09:21:03.865Z,38.62
2022-11-14T09:23:32.474Z,39.21
2022-11-14T09:26:05.164Z,38.63
2022-11-14T09:28:33.693Z,38.81
2022-11-14T09:31:02.791Z,39.05
2022-11-14T09:33:31.671Z,39.24
2022-11-14T09:36:00.444Z,39.29
2022-11-14T09:38:35.406Z,38.89
2022-11-14T09:41:17.132Z,38.54
2022-11-14T09:43:58.645Z,38.87
2022-11-14T09:46:29.471Z,39.24
2022-11-14T09:48:57.914Z,39.07
2022-11-14T09:51:27.197Z,38.69
2022-11-14T09:54:00.835Z,37.85
2022-11-14T09:56:28.855Z,38.59
2022-11-14T09:58:57.672Z,38.67
2022-11-14T10:01:34.181Z,37.75
2022-11-14T10:04:10.727Z,38.54
2022-11-14T10:06:47.188Z,38.45
2022-11-14T10:09:31.164Z,38.51
2022-11-14T10:12:05.739Z,38.12
2022-11-14T10:15:05.483Z,37.82
2022-11-14T10:17:45.949Z,37.84
2022-11-14T10:20:19.675Z,38.53
2022-11-14T10:23:04.677Z,37.65
2022-11-14T10:25:44.275Z,38.26
2022-11-14T10:28:32.542Z,37.54
2022-11-14T10:31:07.844Z,37.68
2022-11-14T10:33:44.172Z,36.89
2022-11-14T10:36:19.392Z,36.65
2022-11-14T10:38:51.803Z,37.21
2022-11-14T10:41:49.813Z,37.06
2022-11-14T10:44:12.120Z,37.32
2022-11-14T10:46:45.255Z,36.69
2022-11-14T10:49:17.644Z,36.27
2022-11-14T10:51:48.662Z,36.50
2022-11-14T10:54:19.173Z,36.12
2022-11-14T10:56:50.193Z,36.39
2022-11-14T10:59:18.690Z,37.08
2022-11-14T11:01:55.016Z,36.29
2022-11-14T11:04:27.861Z,35.95
2022-11-14T11:06:57.977Z,36.28
2022-11-14T11:09:45.995Z,36.99
2022-11-14T11:12:20.757Z,37.01
2022-11-14T11:14:50.723Z,37.56
2022-11-14T11:17:29.545Z,37.02
2022-11-14T11:20:23.880Z,36.40
2022-11-14T11:23:03.685Z,35.77
2022-11-14T11:25:33.066Z,35.81
2022-11-14T11:28:07.793Z,35.04
2022-11-14T11:30:35.856Z,35.82
2022-11-14T11:33:17.886Z,35.60
2022-11-14T11:35:47.288Z,36.62
2022-11-14T11:38:16.255Z,37.35
2022-11-14T11:40:45.491Z,37.57
2022-11-14T11:46:13.342Z,37.75
2022-11-14T11:48:41.879Z,38.05
2022-11-14T11:51:15.507Z,37.40
2022-11-14T11:53:46.233Z,37.55
2022-11-14T11:56:17.577Z,36.70
2022-11-14T11:58:47.580Z,34.80
2022-11-14T12:01:16.124Z,35.93
2022-11-14T12:03:48.068Z,35.43
2022-11-14T12:06:17.974Z,35.58
2022-11-14T12:08:57.492Z,34.87
2022-11-14T12:11:27.896Z,35.24
2022-11-14T12:14:29.740Z,34.55
2022-11-14T12:17:22.015Z,34.81
2022-11-14T12:20:05.249Z,34.68
2022-11-14T12:22:51.887Z,34.58
2022-11-14T12:25:51.221Z,34.90
2022-11-14T12:28:32.550Z,35.03
2022-11-14T12:31:04.740Z,35.38
2022-11-14T12:33:35.614Z,35.62
2022-11-14T12:36:06.957Z,35.16
2022-11-14T12:38:42.315Z,35.07
2022-11-14T12:41:11.374Z,35.04
2022-11-14T12:43:41.848Z,34.62
2022-11-14T12:46:13.173Z,34.57
2022-11-14T12:48:43.133Z,34.86
2022-11-14T12:51:48.785Z,34.08
2022-11-14T12:54:45.871Z,33.92
2022-11-14T12:57:41.856Z,35.16
2022-11-14T13:00:10.570Z,35.72
2022-11-14T13:03:01.523Z,34.81
2022-11-14T13:05:58.692Z,34.36
2022-11-14T13:08:45.665Z,34.35
2022-11-14T13:11:50.600Z,34.22
2022-11-14T13:14:37.476Z,35.75
2022-11-14T13:17:38.951Z,35.30
2022-11-14T13:20:47.031Z,35.41
2022-11-14T13:23:58.778Z,35.45
2022-11-14T13:26:43.924Z,35.57
2022-11-14T13:30:00.281Z,35.70
2022-11-14T13:32:54.170Z,36.48
2022-11-14T13:35:31.579Z,36.88
2022-11-14T13:38:18.794Z,36.79
2022-11-14T13:40:56.875Z,36.87
2022-11-14T13:43:33.525Z,36.81
2022-11-14T13:46:03.283Z,37.72
2022-11-14T13:48:55.626Z,37.06
2022-11-14T13:54:17.606Z,37.47
2022-11-14T13:56:55.531Z,37.27
2022-11-14T13:59:49.104Z,36.61
2022-11-14T14:02:52.624Z,36.96
2022-11-14T14:05:27.871Z,37.67
2022-11-14T14:08:10.634Z,37.29
2022-11-14T14:10:43.504Z,37.80
2022-11-14T14:13:22.472Z,37.47
2022-11-14T14:16:00.169Z,36.88
2022-11-14T14:18:42.104Z,37.00
2022-11-14T14:21:16.693Z,37.50
2022-11-14T14:23:48.886Z,37.40
2022-11-14T14:26:23.281Z,37.17
2022-11-14T14:28:57.535Z,37.66
2022-11-14T14:31:25.992Z,38.30
2022-11-14T14:33:54.068Z,38.04
2022-11-14T14:36:25.801Z,37.94
2022-11-14T14:39:13.355Z,38.39
2022-11-14T14:41:42.359Z,38.84
2022-11-14T14:44:20.425Z,38.79
2022-11-14T14:46:48.951Z,39.38
2022-11-14T14:49:21.129Z,39.31
2022-11-14T14:51:52.135Z,39.27
2022-11-14T14:54:25.978Z,39.01
2022-11-14T14:56:55.691Z,39.29
2022-11-14T14:59:26.745Z,39.17
2022-11-14T15:01:55.979Z,38.26
2022-11-14T15:04:26.522Z,39.84
2022-11-14T15:06:57.716Z,40.34
2022-11-14T15:09:28.135Z,40.04
2022-11-14T15:11:59.277Z,39.87
2022-11-14T15:14:31.780Z,39.44
2022-11-14T15:17:01.756Z,39.49
2022-11-14T15:19:36.638Z,39.10
2022-11-14T15:22:07.189Z,39.36
2022-11-14T15:24:35.261Z,40.34
2022-11-14T15:27:05.938Z,39.77
2022-11-14T15:29:35.527Z,40.25
2022-11-14T15:32:05.888Z,40.66
2022-11-14T15:34:35.439Z,41.15
2022-11-14T15:37:21.745Z,39.87
2022-11-14T15:39:49.989Z,41.52
2022-11-14T15:42:22.114Z,40.78
2022-11-14T15:44:51.922Z,40.65
2022-11-14T15:47:23.106Z,39.92
2022-11-14T15:49:58.309Z,39.67
2022-11-14T15:52:30.622Z,40.08
2022-11-14T15:54:58.782Z,40.66
2022-11-14T15:57:27.141Z,40.96
2022-11-14T15:59:56.691Z,40.56
2022-11-14T16:02:26.912Z,40.80
2022-11-14T16:04:55.524Z,41.16
2022-11-14T16:07:24.012Z,41.26
2022-11-14T16:09:52.351Z,41.52
2022-11-14T16:12:20.744Z,41.63
2022-11-14T16:14:48.889Z,41.76
2022-11-14T16:17:19.348Z,41.59
2022-11-14T16:19:47.475Z,41.47
2022-11-14T16:22:18.619Z,40.65
2022-11-14T16:24:46.868Z,41.27
2022-11-14T16:27:15.607Z,40.47
2022-11-14T16:29:43.698Z,40.77
2022-11-14T16:32:12.369Z,41.35
2022-11-14T16:34:41.882Z,41.18
2022-11-14T16:37:13.633Z,40.72
2022-11-14T16:39:41.791Z,41.53
2022-11-14T16:42:11.294Z,40.85
2022-11-14T16:44:42.880Z,40.64
2022-11-14T16:47:14.609Z,41.00
2022-11-14T16:49:44.043Z,40.49
2022-11-14T16:52:13.282Z,40.58
2022-11-14T16:54:41.495Z,40.86
2022-11-14T16:57:09.875Z,40.60
2022-11-14T16:59:38.341Z,41.03
2022-11-14T17:02:07.131Z,40.97
2022-11-14T17:04:35.289Z,41.02
2022-11-14T17:07:05.104Z,40.69
2022-11-14T17:09:33.291Z,40.78
2022-11-14T17:12:01.629Z,40.78
2022-11-14T17:14:29.938Z,41.29
2022-11-14T17:17:04.357Z,40.73
2022-11-14T17:19:32.625Z,40.96
2022-11-14T17:22:00.962Z,40.76
2022-11-14T17:24:31.662Z,40.40
2022-11-14T17:27:00.743Z,40.10
2022-11-14T17:29:28.800Z,40.27
2022-11-14T17:31:57.170Z,40.81
2022-11-14T17:34:25.269Z,41.79
2022-11-14T17:36:53.677Z,41.72
2022-11-14T17:39:21.729Z,41.95
2022-11-14T17:41:51.521Z,41.94
2022-11-14T17:44:19.719Z,42.88
2022-11-14T17:46:48.313Z,42.33
2022-11-14T17:49:16.439Z,42.61
2022-11-14T17:51:44.816Z,42.80
2022-11-14T17:54:12.935Z,41.42
2022-11-14T17:56:46.564Z,41.17
2022-11-14T17:59:19.239Z,41.13
2022-11-14T18:01:47.779Z,40.89
2022-11-14T18:04:16.056Z,41.09
2022-11-14T18:06:44.437Z,41.31
2022-11-14T18:09:14.365Z,40.95
2022-11-14T18:11:43.040Z,40.43
2022-11-14T18:14:11.910Z,40.78
2022-11-14T18:17:10.548Z,40.46
2022-11-14T18:19:29.863Z,40.98
2022-11-14T18:21:58.171Z,41.35
2022-11-14T18:24:26.204Z,41.30
2022-11-14T18:26:55.574Z,41.81
2022-11-14T18:29:23.799Z,41.54
2022-11-14T18:31:53.504Z,40.82
2022-11-14T18:34:21.595Z,41.00
2022-11-14T18:36:50.198Z,41.68
2022-11-14T18:39:18.181Z,42.06
2022-11-14T18:41:46.509Z,41.75
2022-11-14T18:44:14.747Z,42.95
2022-11-14T18:46:43.100Z,42.78
2022-11-14T18:49:12.760Z,42.37
2022-11-14T18:51:42.326Z,42.47
2022-11-14T18:54:12.684Z,42.10
2022-11-14T18:56:41.725Z,42.95
2022-11-14T18:59:12.290Z,41.54
2022-11-14T19:01:41.472Z,41.78
2022-11-14T19:04:12.382Z,42.48
2022-11-14T19:06:41.908Z,42.78
2022-11-14T19:09:11.930Z,42.95
2022-11-14T19:11:57.859Z,42.68
2022-11-14T19:14:26.074Z,42.87
2022-11-14T19:16:54.678Z,43.24
2022-11-14T19:19:24.245Z,42.79
2022-11-14T19:21:52.760Z,42.72
2022-11-14T19:24:21.094Z,42.54
2022-11-14T19:26:49.207Z,41.88
2022-11-14T19:29:17.797Z,41.88
2022-11-14T19:31:46.073Z,42.02
2022-11-14T19:34:15.836Z,41.96
2022-11-14T19:36:59.557Z,41.76
2022-11-14T19:39:28.856Z,42.16
2022-11-14T19:41:56.982Z,42.62
2022-11-14T19:44:25.482Z,42.06
2022-11-14T19:46:53.586Z,41.92
2022-11-14T19:49:22.079Z,41.95
2022-11-14T19:51:51.591Z,41.83
2022-11-14T19:54:19.984Z,41.95
2022-11-14T19:56:48.080Z,42.80
2022-11-14T19:59:20.177Z,42.97
2022-11-14T20:02:03.122Z,42.20
2022-11-14T20:04:36.867Z,42.04
2022-11-14T20:07:07.365Z,41.82
2022-11-14T20:09:35.959Z,41.69
2022-11-14T20:12:04.018Z,41.56
2022-11-14T20:14:32.435Z,41.27
2022-11-14T20:17:00.488Z,41.62
2022-11-14T20:19:28.904Z,41.69
2022-11-14T20:21:57.040Z,41.68
2022-11-14T20:24:26.894Z,41.60
2022-11-14T20:26:55.120Z,42.13
2022-11-14T20:29:23.806Z,41.78
2022-11-14T20:31:51.933Z,41.76
2022-11-14T20:34:20.299Z,42.09
2022-11-14T20:39:38.093Z,41.63
2022-11-14T20:42:06.660Z,40.81
2022-11-14T20:44:35.183Z,40.90
2022-11-14T20:47:07.124Z,40.65
2022-11-14T20:49:38.134Z,40.88
2022-11-14T20:52:06.565Z,41.35
2022-11-14T20:54:34.929Z,41.92
2022-11-14T20:57:04.529Z,41.49
2022-11-14T20:59:33.308Z,41.53
2022-11-14T21:02:01.421Z,42.00
2022-11-14T21:04:30.056Z,41.94
2022-11-14T21:06:58.301Z,41.37
2022-11-14T21:09:28.159Z,41.49
2022-11-14T21:11:56.236Z,41.51
2022-11-14T21:14:26.129Z,41.65
2022-11-14T21:16:54.231Z,42.17
2022-11-14T21:19:22.814Z,41.82
2022-11-14T21:21:51.009Z,41.53
2022-11-14T21:24:19.504Z,41.51
2022-11-14T21:26:47.666Z,41.26
2022-11-14T21:29:16.062Z,41.35
2022-11-14T21:31:47.020Z,40.90
2022-11-14T21:34:18.066Z,41.36
2022-11-14T21:36:47.335Z,41.77
2022-11-14T21:39:17.722Z,42.16
2022-11-14T21:41:48.440Z,42.20
2022-11-14T21:44:18.500Z,42.27
2022-11-14T21:46:49.674Z,42.06
2022-11-14T21:49:18.271Z,42.82
2022-11-14T21:51:47.234Z,43.15
2022-11-14T21:54:15.758Z,42.50
2022-11-14T21:56:43.892Z,42.26
2022-11-14T21:59:16.040Z,41.77
2022-11-14T22:02:03.395Z,41.67
2022-11-14T22:04:33.679Z,41.21
2022-11-14T22:07:04.879Z,41.03
2022-11-14T22:09:33.837Z,41.74
2022-11-14T22:12:02.318Z,41.88
2022-11-14T22:14:30.784Z,42.43
2022-11-14T22:16:59.141Z,41.94
2022-11-14T22:19:27.683Z,42.45
2022-11-14T22:21:57.170Z,41.43
2022-11-14T22:24:25.761Z,41.55
2022-11-14T22:26:53.811Z,41.40
2022-11-14T22:29:22.351Z,41.10
2022-11-14T22:31:53.006Z,40.99
2022-11-14T22:34:21.448Z,41.31
2022-11-14T22:36:49.634Z,41.10
2022-11-14T22:39:19.297Z,40.68
2022-11-14T22:41:47.509Z,40.82
2022-11-14T22:44:15.839Z,41.10
2022-11-14T22:46:43.922Z,41.35
2022-11-14T22:49:14.214Z,41.37
2022-11-14T22:51:45.426Z,41.71
2022-11-14T22:54:14.368Z,41.70
2022-11-14T22:56:43.798Z,41.00
2022-11-14T22:59:12.250Z,41.06
2022-11-14T23:01:40.298Z,41.07
2022-11-14T23:04:10.260Z,40.85
2022-11-14T23:06:38.274Z,40.91
2022-11-14T23:09:06.696Z,41.01
2022-11-14T23:11:34.977Z,40.89
2022-11-14T23:14:04.822Z,40.79
2022-11-14T23:16:33.935Z,40.57
2022-11-14T23:19:04.294Z,40.37
2022-11-14T23:21:34.256Z,40.24
2022-11-14T23:24:06.361Z,40.26
2022-11-14T23:26:34.572Z,40.21
2022-11-14T23:29:04.542Z,39.93
2022-11-14T23:31:32.621Z,39.94
2022-11-14T23:34:00.965Z,39.57
2022-11-14T23:36:29.203Z,39.89
2022-11-14T23:38:57.554Z,39.92
2022-11-14T23:41:26.803Z,39.55
2022-11-14T23:43:55.197Z,39.43
2022-11-14T23:46:24.665Z,39.02
2022-11-14T23:48:53.503Z,39.54
2022-11-14T23:51:21.729Z,39.25
2022-11-14T23:53:50.740Z,39.24
2022-11-14T23:56:19.039Z,38.98
2022-11-14T23:58:47.616Z,39.37
